sensor_id;sensor_type;location;lat;lon;timestamp;temperature;humidity
814;DHT22;389;48.710;9.392;2023-02-15T00:00:21;-0.40;99.80
814;DHT22;389;48.710;9.392;2023-02-15T00:02:47;-0.50;99.80
814;DHT22;389;48.710;9.392;2023-02-15T00:05:13;-0.50;99.80
814;DHT22;389;48.710;9.392;2023-02-15T00:07:38;-0.50;99.90
814;DHT22;389;48.710;9.392;2023-02-15T00:10:04;-0.50;99.80
814;DHT22;389;48.710;9.392;2023-02-15T00:12:30;-0.60;99.80
814;DHT22;389;48.710;9.392;2023-02-15T00:14:56;-0.60;99.80
814;DHT22;389;48.710;9.392;2023-02-15T00:17:21;-0.60;99.80
814;DHT22;389;48.710;9.392;2023-02-15T00:19:47;-0.60;99.80
814;DHT22;389;48.710;9.392;2023-02-15T00:22:13;-0.70;99.80
814;DHT22;389;48.710;9.392;2023-02-15T00:24:40;-0.70;99.80
814;DHT22;389;48.710;9.392;2023-02-15T00:27:05;-0.70;99.80
814;DHT22;389;48.710;9.392;2023-02-15T00:29:31;-0.70;99.90
814;DHT22;389;48.710;9.392;2023-02-15T00:31:57;-0.70;99.80
814;DHT22;389;48.710;9.392;2023-02-15T00:34:24;-0.70;99.80
814;DHT22;389;48.710;9.392;2023-02-15T00:36:50;-0.80;99.80
814;DHT22;389;48.710;9.392;2023-02-15T00:39:16;-0.80;99.80
814;DHT22;389;48.710;9.392;2023-02-15T00:41:43;-0.80;99.80
814;DHT22;389;48.710;9.392;2023-02-15T00:44:09;-0.80;99.80
814;DHT22;389;48.710;9.392;2023-02-15T00:46:35;-0.90;99.80
814;DHT22;389;48.710;9.392;2023-02-15T00:49:01;-0.90;99.80
814;DHT22;389;48.710;9.392;2023-02-15T00:51:27;-0.90;99.80
814;DHT22;389;48.710;9.392;2023-02-15T00:53:53;-0.90;99.80
814;DHT22;389;48.710;9.392;2023-02-15T00:56:19;-0.90;99.90
814;DHT22;389;48.710;9.392;2023-02-15T00:58:44;-1.00;99.80
814;DHT22;389;48.710;9.392;2023-02-15T01:01:13;-1.00;99.80
814;DHT22;389;48.710;9.392;2023-02-15T01:03:45;-1.00;99.80
814;DHT22;389;48.710;9.392;2023-02-15T01:06:13;-1.10;99.70
814;DHT22;389;48.710;9.392;2023-02-15T01:08:39;-1.10;99.80
814;DHT22;389;48.710;9.392;2023-02-15T01:11:07;-1.10;99.80
814;DHT22;389;48.710;9.392;2023-02-15T01:13:34;-1.10;99.90
814;DHT22;389;48.710;9.392;2023-02-15T01:16:00;-1.10;99.90
814;DHT22;389;48.710;9.392;2023-02-15T01:18:26;-1.10;99.90
814;DHT22;389;48.710;9.392;2023-02-15T01:20:52;-1.10;99.90
814;DHT22;389;48.710;9.392;2023-02-15T01:23:18;-1.20;99.90
814;DHT22;389;48.710;9.392;2023-02-15T01:25:44;-1.10;99.90
814;DHT22;389;48.710;9.392;2023-02-15T01:28:09;-1.20;99.80
814;DHT22;389;48.710;9.392;2023-02-15T01:30:35;-1.20;99.80
814;DHT22;389;48.710;9.392;2023-02-15T01:33:01;-1.20;99.80
814;DHT22;389;48.710;9.392;2023-02-15T01:35:27;-1.20;99.80
814;DHT22;389;48.710;9.392;2023-02-15T01:37:54;-1.20;99.80
814;DHT22;389;48.710;9.392;2023-02-15T01:40:19;-1.20;99.80
814;DHT22;389;48.710;9.392;2023-02-15T01:42:49;-1.30;99.70
814;DHT22;389;48.710;9.392;2023-02-15T01:45:25;-1.30;99.80
814;DHT22;389;48.710;9.392;2023-02-15T01:47:56;-1.30;99.80
814;DHT22;389;48.710;9.392;2023-02-15T01:55:24;-1.40;99.80
814;DHT22;389;48.710;9.392;2023-02-15T01:57:51;-1.40;99.80
814;DHT22;389;48.710;9.392;2023-02-15T02:00:17;-1.40;99.80
814;DHT22;389;48.710;9.392;2023-02-15T02:02:46;-1.40;99.80
814;DHT22;389;48.710;9.392;2023-02-15T02:05:13;-1.40;99.80
814;DHT22;389;48.710;9.392;2023-02-15T02:07:42;-1.50;99.90
814;DHT22;389;48.710;9.392;2023-02-15T02:10:13;-1.50;99.90
814;DHT22;389;48.710;9.392;2023-02-15T02:12:42;-1.40;99.90
814;DHT22;389;48.710;9.392;2023-02-15T02:15:10;-1.40;99.90
814;DHT22;389;48.710;9.392;2023-02-15T02:23:15;-1.50;99.90
814;DHT22;389;48.710;9.392;2023-02-15T02:34:13;-1.60;99.90
814;DHT22;389;48.710;9.392;2023-02-15T02:37:08;-1.60;99.90
814;DHT22;389;48.710;9.392;2023-02-15T02:39:49;-1.60;99.90
814;DHT22;389;48.710;9.392;2023-02-15T02:44:50;-1.60;99.90
814;DHT22;389;48.710;9.392;2023-02-15T02:50:16;-1.60;99.90
814;DHT22;389;48.710;9.392;2023-02-15T02:52:44;-1.60;99.90
814;DHT22;389;48.710;9.392;2023-02-15T03:01:06;-1.60;99.90
814;DHT22;389;48.710;9.392;2023-02-15T03:04:07;-1.70;99.90
814;DHT22;389;48.710;9.392;2023-02-15T03:06:51;-1.70;99.90
814;DHT22;389;48.710;9.392;2023-02-15T03:09:30;-1.70;99.90
814;DHT22;389;48.710;9.392;2023-02-15T03:12:00;-1.70;99.90
814;DHT22;389;48.710;9.392;2023-02-15T03:14:27;-1.70;99.90
814;DHT22;389;48.710;9.392;2023-02-15T03:16:54;-1.80;99.90
814;DHT22;389;48.710;9.392;2023-02-15T03:19:29;-1.80;99.90
814;DHT22;389;48.710;9.392;2023-02-15T03:22:04;-1.80;99.90
814;DHT22;389;48.710;9.392;2023-02-15T03:24:57;-1.80;99.90
814;DHT22;389;48.710;9.392;2023-02-15T03:27:35;-1.80;99.90
814;DHT22;389;48.710;9.392;2023-02-15T03:30:04;-1.80;99.90
814;DHT22;389;48.710;9.392;2023-02-15T03:32:33;-1.80;99.90
814;DHT22;389;48.710;9.392;2023-02-15T03:35:00;-1.80;99.90
814;DHT22;389;48.710;9.392;2023-02-15T03:37:41;-1.80;99.90
814;DHT22;389;48.710;9.392;2023-02-15T03:40:22;-1.80;99.90
814;DHT22;389;48.710;9.392;2023-02-15T03:46:05;-1.90;99.90
814;DHT22;389;48.710;9.392;2023-02-15T03:48:42;-1.90;99.90
814;DHT22;389;48.710;9.392;2023-02-15T03:51:14;-1.90;99.90
814;DHT22;389;48.710;9.392;2023-02-15T03:54:08;-1.80;99.90
814;DHT22;389;48.710;9.392;2023-02-15T03:56:37;-1.90;99.90
814;DHT22;389;48.710;9.392;2023-02-15T03:59:04;-1.90;99.90
814;DHT22;389;48.710;9.392;2023-02-15T04:04:42;-1.90;99.90
814;DHT22;389;48.710;9.392;2023-02-15T04:07:09;-1.90;99.90
814;DHT22;389;48.710;9.392;2023-02-15T04:09:35;-1.90;99.90
814;DHT22;389;48.710;9.392;2023-02-15T04:12:19;-1.90;99.90
814;DHT22;389;48.710;9.392;2023-02-15T04:14:45;-2.00;99.90
814;DHT22;389;48.710;9.392;2023-02-15T04:17:29;-2.00;99.90
814;DHT22;389;48.710;9.392;2023-02-15T04:19:55;-2.00;99.90
814;DHT22;389;48.710;9.392;2023-02-15T04:22:39;-2.00;99.90
814;DHT22;389;48.710;9.392;2023-02-15T04:25:23;-2.00;99.90
814;DHT22;389;48.710;9.392;2023-02-15T04:27:51;-2.00;99.90
814;DHT22;389;48.710;9.392;2023-02-15T04:30:19;-2.00;99.90
814;DHT22;389;48.710;9.392;2023-02-15T04:32:46;-2.10;99.90
814;DHT22;389;48.710;9.392;2023-02-15T04:35:12;-2.10;99.80
814;DHT22;389;48.710;9.392;2023-02-15T04:37:39;-2.10;99.80
814;DHT22;389;48.710;9.392;2023-02-15T04:40:05;-2.00;99.90
814;DHT22;389;48.710;9.392;2023-02-15T04:42:31;-2.10;99.90
814;DHT22;389;48.710;9.392;2023-02-15T04:44:57;-2.10;99.90
814;DHT22;389;48.710;9.392;2023-02-15T04:47:23;-2.10;99.90
814;DHT22;389;48.710;9.392;2023-02-15T04:49:48;-2.10;99.90
814;DHT22;389;48.710;9.392;2023-02-15T04:52:14;-2.20;99.80
814;DHT22;389;48.710;9.392;2023-02-15T04:54:40;-2.20;99.80
814;DHT22;389;48.710;9.392;2023-02-15T04:57:06;-2.20;99.80
814;DHT22;389;48.710;9.392;2023-02-15T04:59:31;-2.20;99.80
814;DHT22;389;48.710;9.392;2023-02-15T05:01:57;-2.30;99.70
814;DHT22;389;48.710;9.392;2023-02-15T05:04:22;-2.30;99.90
814;DHT22;389;48.710;9.392;2023-02-15T05:06:48;-2.30;99.90
814;DHT22;389;48.710;9.392;2023-02-15T05:09:14;-2.30;99.90
814;DHT22;389;48.710;9.392;2023-02-15T05:11:40;-2.20;99.90
814;DHT22;389;48.710;9.392;2023-02-15T05:14:06;-2.30;99.90
814;DHT22;389;48.710;9.392;2023-02-15T05:16:32;-2.30;99.80
814;DHT22;389;48.710;9.392;2023-02-15T05:18:58;-2.30;99.80
814;DHT22;389;48.710;9.392;2023-02-15T05:21:23;-2.30;99.80
814;DHT22;389;48.710;9.392;2023-02-15T05:23:49;-2.40;99.70
814;DHT22;389;48.710;9.392;2023-02-15T05:26:20;-2.40;99.70
814;DHT22;389;48.710;9.392;2023-02-15T05:29:05;-2.40;99.80
814;DHT22;389;48.710;9.392;2023-02-15T05:31:31;-2.40;99.80
814;DHT22;389;48.710;9.392;2023-02-15T05:33:57;-2.40;99.90
814;DHT22;389;48.710;9.392;2023-02-15T05:36:23;-2.40;99.90
814;DHT22;389;48.710;9.392;2023-02-15T05:38:49;-2.40;99.90
814;DHT22;389;48.710;9.392;2023-02-15T05:41:15;-2.40;99.90
814;DHT22;389;48.710;9.392;2023-02-15T05:43:40;-2.40;99.90
814;DHT22;389;48.710;9.392;2023-02-15T05:46:07;-2.40;99.90
814;DHT22;389;48.710;9.392;2023-02-15T05:48:34;-2.40;99.80
814;DHT22;389;48.710;9.392;2023-02-15T05:51:03;-2.40;99.80
814;DHT22;389;48.710;9.392;2023-02-15T05:53:31;-2.40;99.90
814;DHT22;389;48.710;9.392;2023-02-15T05:55:58;-2.40;99.80
814;DHT22;389;48.710;9.392;2023-02-15T05:58:28;-2.40;99.90
814;DHT22;389;48.710;9.392;2023-02-15T06:00:54;-2.40;99.80
814;DHT22;389;48.710;9.392;2023-02-15T06:03:20;-2.40;99.80
814;DHT22;389;48.710;9.392;2023-02-15T06:05:46;-2.50;99.70
814;DHT22;389;48.710;9.392;2023-02-15T06:08:11;-2.50;99.80
814;DHT22;389;48.710;9.392;2023-02-15T06:10:37;-2.50;99.80
814;DHT22;389;48.710;9.392;2023-02-15T06:13:02;-2.50;99.70
814;DHT22;389;48.710;9.392;2023-02-15T06:15:28;-2.50;99.70
814;DHT22;389;48.710;9.392;2023-02-15T06:17:54;-2.50;99.70
814;DHT22;389;48.710;9.392;2023-02-15T06:20:19;-2.60;99.60
814;DHT22;389;48.710;9.392;2023-02-15T06:22:45;-2.50;99.70
814;DHT22;389;48.710;9.392;2023-02-15T06:25:11;-2.60;99.70
814;DHT22;389;48.710;9.392;2023-02-15T06:27:37;-2.60;99.70
814;DHT22;389;48.710;9.392;2023-02-15T06:30:04;-2.60;99.80
814;DHT22;389;48.710;9.392;2023-02-15T06:32:31;-2.60;99.90
814;DHT22;389;48.710;9.392;2023-02-15T06:34:56;-2.60;99.90
814;DHT22;389;48.710;9.392;2023-02-15T06:37:22;-2.60;99.90
814;DHT22;389;48.710;9.392;2023-02-15T06:39:47;-2.60;99.90
814;DHT22;389;48.710;9.392;2023-02-15T06:42:13;-2.50;99.90
814;DHT22;389;48.710;9.392;2023-02-15T06:44:39;-2.60;99.80
814;DHT22;389;48.710;9.392;2023-02-15T06:47:04;-2.60;99.90
814;DHT22;389;48.710;9.392;2023-02-15T06:49:30;-2.60;99.90
814;DHT22;389;48.710;9.392;2023-02-15T06:51:55;-2.60;99.90
814;DHT22;389;48.710;9.392;2023-02-15T06:54:21;-2.50;99.90
814;DHT22;389;48.710;9.392;2023-02-15T06:56:46;-2.50;99.90
814;DHT22;389;48.710;9.392;2023-02-15T06:59:12;-2.50;99.90
814;DHT22;389;48.710;9.392;2023-02-15T07:01:37;-2.40;99.90
814;DHT22;389;48.710;9.392;2023-02-15T07:04:03;-2.40;99.90
814;DHT22;389;48.710;9.392;2023-02-15T07:06:32;-2.30;99.90
814;DHT22;389;48.710;9.392;2023-02-15T07:08:58;-2.30;99.90
814;DHT22;389;48.710;9.392;2023-02-15T07:11:24;-2.30;99.90
814;DHT22;389;48.710;9.392;2023-02-15T07:14:08;-2.20;99.90
814;DHT22;389;48.710;9.392;2023-02-15T07:16:34;-2.20;99.90
814;DHT22;389;48.710;9.392;2023-02-15T07:18:59;-2.10;99.90
814;DHT22;389;48.710;9.392;2023-02-15T07:21:25;-2.10;99.90
814;DHT22;389;48.710;9.392;2023-02-15T07:23:51;-2.10;99.90
814;DHT22;389;48.710;9.392;2023-02-15T07:26:16;-2.10;99.90
814;DHT22;389;48.710;9.392;2023-02-15T07:28:42;-2.00;99.90
814;DHT22;389;48.710;9.392;2023-02-15T07:31:07;-1.90;99.90
814;DHT22;389;48.710;9.392;2023-02-15T07:33:34;-1.90;99.90
814;DHT22;389;48.710;9.392;2023-02-15T07:36:01;-1.80;99.90
814;DHT22;389;48.710;9.392;2023-02-15T07:38:33;-1.80;99.90
814;DHT22;389;48.710;9.392;2023-02-15T07:41:00;-1.70;99.90
814;DHT22;389;48.710;9.392;2023-02-15T07:43:27;-1.70;99.90
814;DHT22;389;48.710;9.392;2023-02-15T07:45:52;-1.60;99.90
814;DHT22;389;48.710;9.392;2023-02-15T07:48:18;-1.60;99.90
814;DHT22;389;48.710;9.392;2023-02-15T07:50:43;-1.50;99.90
814;DHT22;389;48.710;9.392;2023-02-15T07:53:09;-1.40;99.90
814;DHT22;389;48.710;9.392;2023-02-15T07:55:34;-1.40;99.90
814;DHT22;389;48.710;9.392;2023-02-15T07:58:00;-1.30;99.90
814;DHT22;389;48.710;9.392;2023-02-15T08:00:26;-1.20;99.90
814;DHT22;389;48.710;9.392;2023-02-15T08:02:54;-1.10;99.90
814;DHT22;389;48.710;9.392;2023-02-15T08:05:39;-1.00;99.90
814;DHT22;389;48.710;9.392;2023-02-15T08:08:06;-0.90;99.90
814;DHT22;389;48.710;9.392;2023-02-15T08:10:32;-0.90;99.90
814;DHT22;389;48.710;9.392;2023-02-15T08:13:17;-0.80;99.90
814;DHT22;389;48.710;9.392;2023-02-15T08:15:50;-0.70;99.90
814;DHT22;389;48.710;9.392;2023-02-15T08:18:15;-0.60;99.90
814;DHT22;389;48.710;9.392;2023-02-15T08:20:41;-0.50;99.90
814;DHT22;389;48.710;9.392;2023-02-15T08:23:07;-0.40;99.90
814;DHT22;389;48.710;9.392;2023-02-15T08:25:32;-0.30;99.90
814;DHT22;389;48.710;9.392;2023-02-15T08:27:58;-0.20;99.90
814;DHT22;389;48.710;9.392;2023-02-15T08:30:23;-0.10;99.90
814;DHT22;389;48.710;9.392;2023-02-15T08:32:49;0.00;99.90
814;DHT22;389;48.710;9.392;2023-02-15T08:35:14;0.10;99.90
814;DHT22;389;48.710;9.392;2023-02-15T08:37:40;0.20;99.90
814;DHT22;389;48.710;9.392;2023-02-15T08:40:06;0.30;99.90
814;DHT22;389;48.710;9.392;2023-02-15T08:42:33;0.40;99.90
814;DHT22;389;48.710;9.392;2023-02-15T08:44:59;0.40;99.90
814;DHT22;389;48.710;9.392;2023-02-15T08:47:24;0.50;99.90
814;DHT22;389;48.710;9.392;2023-02-15T08:49:50;0.60;99.90
814;DHT22;389;48.710;9.392;2023-02-15T08:52:16;0.70;99.90
814;DHT22;389;48.710;9.392;2023-02-15T08:54:42;0.80;99.90
814;DHT22;389;48.710;9.392;2023-02-15T08:57:08;0.90;99.90
814;DHT22;389;48.710;9.392;2023-02-15T08:59:34;1.00;99.90
814;DHT22;389;48.710;9.392;2023-02-15T09:02:00;1.10;99.90
814;DHT22;389;48.710;9.392;2023-02-15T09:04:26;1.10;99.90
814;DHT22;389;48.710;9.392;2023-02-15T09:06:52;1.20;99.90
814;DHT22;389;48.710;9.392;2023-02-15T09:09:19;1.30;99.90
814;DHT22;389;48.710;9.392;2023-02-15T09:11:47;1.50;99.90
814;DHT22;389;48.710;9.392;2023-02-15T09:14:16;1.60;99.90
814;DHT22;389;48.710;9.392;2023-02-15T09:16:43;1.70;99.90
814;DHT22;389;48.710;9.392;2023-02-15T09:19:11;1.80;99.90
814;DHT22;389;48.710;9.392;2023-02-15T09:21:38;1.90;99.90
814;DHT22;389;48.710;9.392;2023-02-15T09:24:06;2.00;99.90
814;DHT22;389;48.710;9.392;2023-02-15T09:26:34;2.10;99.90
814;DHT22;389;48.710;9.392;2023-02-15T09:29:01;2.20;99.90
814;DHT22;389;48.710;9.392;2023-02-15T09:31:52;2.30;99.90
814;DHT22;389;48.710;9.392;2023-02-15T09:34:37;2.40;99.90
814;DHT22;389;48.710;9.392;2023-02-15T09:37:05;2.60;99.90
814;DHT22;389;48.710;9.392;2023-02-15T09:39:31;2.70;99.90
814;DHT22;389;48.710;9.392;2023-02-15T09:48:19;3.10;99.90
814;DHT22;389;48.710;9.392;2023-02-15T09:53:56;3.40;99.20
814;DHT22;389;48.710;9.392;2023-02-15T09:56:38;3.60;99.50
814;DHT22;389;48.710;9.392;2023-02-15T09:59:32;3.80;99.90
814;DHT22;389;48.710;9.392;2023-02-15T10:11:08;4.30;99.50
814;DHT22;389;48.710;9.392;2023-02-15T10:19:55;4.70;99.40
814;DHT22;389;48.710;9.392;2023-02-15T10:22:31;4.80;98.10
814;DHT22;389;48.710;9.392;2023-02-15T10:25:28;4.90;98.10
814;DHT22;389;48.710;9.392;2023-02-15T10:28:03;5.00;96.70
814;DHT22;389;48.710;9.392;2023-02-15T10:30:50;5.10;97.10
814;DHT22;389;48.710;9.392;2023-02-15T10:36:34;5.40;97.90
814;DHT22;389;48.710;9.392;2023-02-15T10:47:22;5.80;95.80
814;DHT22;389;48.710;9.392;2023-02-15T11:06:59;6.50;93.60
814;DHT22;389;48.710;9.392;2023-02-15T11:09:36;6.60;93.20
814;DHT22;389;48.710;9.392;2023-02-15T11:12:10;6.70;92.80
814;DHT22;389;48.710;9.392;2023-02-15T11:17:21;6.90;92.30
814;DHT22;389;48.710;9.392;2023-02-15T11:22:35;7.10;91.80
814;DHT22;389;48.710;9.392;2023-02-15T11:27:32;7.30;91.60
814;DHT22;389;48.710;9.392;2023-02-15T11:30:13;7.40;91.60
814;DHT22;389;48.710;9.392;2023-02-15T11:32:51;7.50;91.20
814;DHT22;389;48.710;9.392;2023-02-15T11:52:30;8.30;90.30
814;DHT22;389;48.710;9.392;2023-02-15T11:55:22;8.50;90.00
814;DHT22;389;48.710;9.392;2023-02-15T12:01:40;8.60;88.40
814;DHT22;389;48.710;9.392;2023-02-15T12:14:56;9.10;82.30
814;DHT22;389;48.710;9.392;2023-02-15T12:20:52;9.30;81.70
814;DHT22;389;48.710;9.392;2023-02-15T12:29:44;9.60;79.30
814;DHT22;389;48.710;9.392;2023-02-15T12:32:30;9.70;79.90
814;DHT22;389;48.710;9.392;2023-02-15T12:35:14;9.80;79.50
814;DHT22;389;48.710;9.392;2023-02-15T12:37:53;9.90;80.00
814;DHT22;389;48.710;9.392;2023-02-15T12:40:26;10.00;79.20
814;DHT22;389;48.710;9.392;2023-02-15T12:42:53;10.10;78.80
814;DHT22;389;48.710;9.392;2023-02-15T12:50:40;10.40;77.10
814;DHT22;389;48.710;9.392;2023-02-15T12:53:21;10.40;76.50
814;DHT22;389;48.710;9.392;2023-02-15T12:55:56;10.50;76.90
814;DHT22;389;48.710;9.392;2023-02-15T12:58:30;10.60;77.00
814;DHT22;389;48.710;9.392;2023-02-15T13:03:34;10.70;76.80
814;DHT22;389;48.710;9.392;2023-02-15T13:11:34;10.90;77.00
814;DHT22;389;48.710;9.392;2023-02-15T13:14:21;11.10;76.80
814;DHT22;389;48.710;9.392;2023-02-15T13:20:40;11.10;76.50
814;DHT22;389;48.710;9.392;2023-02-15T15:25:47;11.90;80.30
814;DHT22;389;48.710;9.392;2023-02-15T15:31:02;11.70;81.30
814;DHT22;389;48.710;9.392;2023-02-15T15:39:18;11.40;82.60
814;DHT22;389;48.710;9.392;2023-02-15T15:49:46;11.20;83.40
814;DHT22;389;48.710;9.392;2023-02-15T15:52:17;11.20;83.70
814;DHT22;389;48.710;9.392;2023-02-15T15:54:44;11.10;83.90
814;DHT22;389;48.710;9.392;2023-02-15T15:57:35;11.00;83.90
814;DHT22;389;48.710;9.392;2023-02-15T16:00:04;10.90;84.00
814;DHT22;389;48.710;9.392;2023-02-15T16:02:53;10.80;84.20
814;DHT22;389;48.710;9.392;2023-02-15T16:05:20;10.60;84.30
814;DHT22;389;48.710;9.392;2023-02-15T16:07:46;10.50;84.80
814;DHT22;389;48.710;9.392;2023-02-15T16:10:22;10.30;85.20
814;DHT22;389;48.710;9.392;2023-02-15T16:12:49;10.20;85.80
814;DHT22;389;48.710;9.392;2023-02-15T16:15:45;10.10;86.20
814;DHT22;389;48.710;9.392;2023-02-15T16:18:16;9.90;87.50
814;DHT22;389;48.710;9.392;2023-02-15T16:20:58;9.70;87.60
814;DHT22;389;48.710;9.392;2023-02-15T16:28:35;9.20;88.90
814;DHT22;389;48.710;9.392;2023-02-15T16:31:14;9.10;89.30
814;DHT22;389;48.710;9.392;2023-02-15T16:33:42;8.90;90.20
814;DHT22;389;48.710;9.392;2023-02-15T16:36:19;8.70;90.30
814;DHT22;389;48.710;9.392;2023-02-15T16:41:22;8.40;90.50
814;DHT22;389;48.710;9.392;2023-02-15T16:43:49;8.30;90.70
814;DHT22;389;48.710;9.392;2023-02-15T16:46:29;8.20;90.90
814;DHT22;389;48.710;9.392;2023-02-15T16:48:58;8.00;91.00
814;DHT22;389;48.710;9.392;2023-02-15T16:51:28;7.90;91.20
814;DHT22;389;48.710;9.392;2023-02-15T16:53:55;7.70;91.30
814;DHT22;389;48.710;9.392;2023-02-15T16:56:24;7.60;91.50
814;DHT22;389;48.710;9.392;2023-02-15T16:58:53;7.40;91.70
814;DHT22;389;48.710;9.392;2023-02-15T17:01:22;7.30;92.00
814;DHT22;389;48.710;9.392;2023-02-15T17:03:51;7.20;92.20
814;DHT22;389;48.710;9.392;2023-02-15T17:06:35;7.00;92.20
814;DHT22;389;48.710;9.392;2023-02-15T17:09:05;6.90;92.50
814;DHT22;389;48.710;9.392;2023-02-15T17:11:43;6.80;92.90
814;DHT22;389;48.710;9.392;2023-02-15T17:16:45;6.50;93.00
814;DHT22;389;48.710;9.392;2023-02-15T17:19:19;6.50;93.30
814;DHT22;389;48.710;9.392;2023-02-15T17:21:50;6.30;93.50
814;DHT22;389;48.710;9.392;2023-02-15T17:24:22;6.20;93.60
814;DHT22;389;48.710;9.392;2023-02-15T17:26:54;6.10;93.80
814;DHT22;389;48.710;9.392;2023-02-15T17:30:01;6.00;93.90
814;DHT22;389;48.710;9.392;2023-02-15T17:32:33;5.90;94.10
814;DHT22;389;48.710;9.392;2023-02-15T17:42:08;5.60;94.50
814;DHT22;389;48.710;9.392;2023-02-15T17:44:34;5.50;94.70
814;DHT22;389;48.710;9.392;2023-02-15T17:46:59;5.50;95.00
814;DHT22;389;48.710;9.392;2023-02-15T17:49:26;5.40;95.10
814;DHT22;389;48.710;9.392;2023-02-15T17:52:03;5.30;95.30
814;DHT22;389;48.710;9.392;2023-02-15T17:54:28;5.20;95.40
814;DHT22;389;48.710;9.392;2023-02-15T17:57:14;5.20;95.60
814;DHT22;389;48.710;9.392;2023-02-15T17:59:40;5.10;95.70
814;DHT22;389;48.710;9.392;2023-02-15T18:02:25;5.00;95.80
814;DHT22;389;48.710;9.392;2023-02-15T18:05:13;5.00;96.10
814;DHT22;389;48.710;9.392;2023-02-15T18:07:57;4.90;96.10
814;DHT22;389;48.710;9.392;2023-02-15T18:10:41;4.90;96.20
814;DHT22;389;48.710;9.392;2023-02-15T18:13:25;4.80;96.30
814;DHT22;389;48.710;9.392;2023-02-15T18:15:51;4.70;96.40
814;DHT22;389;48.710;9.392;2023-02-15T18:18:16;4.70;96.50
814;DHT22;389;48.710;9.392;2023-02-15T18:20:42;4.60;96.70
814;DHT22;389;48.710;9.392;2023-02-15T18:23:14;4.50;96.80
814;DHT22;389;48.710;9.392;2023-02-15T18:25:40;4.50;96.90
814;DHT22;389;48.710;9.392;2023-02-15T18:28:07;4.50;96.90
814;DHT22;389;48.710;9.392;2023-02-15T18:30:35;4.40;96.90
814;DHT22;389;48.710;9.392;2023-02-15T18:33:01;4.30;97.00
814;DHT22;389;48.710;9.392;2023-02-15T18:35:30;4.30;97.10
814;DHT22;389;48.710;9.392;2023-02-15T18:37:57;4.20;97.10
814;DHT22;389;48.710;9.392;2023-02-15T18:40:25;4.20;97.20
814;DHT22;389;48.710;9.392;2023-02-15T18:42:51;4.10;97.30
814;DHT22;389;48.710;9.392;2023-02-15T18:45:18;4.10;97.40
814;DHT22;389;48.710;9.392;2023-02-15T18:47:45;4.10;97.40
814;DHT22;389;48.710;9.392;2023-02-15T18:50:13;4.00;97.50
814;DHT22;389;48.710;9.392;2023-02-15T18:52:40;3.90;97.50
814;DHT22;389;48.710;9.392;2023-02-15T18:55:33;3.80;97.90
814;DHT22;389;48.710;9.392;2023-02-15T18:58:00;3.80;98.00
814;DHT22;389;48.710;9.392;2023-02-15T19:00:28;3.70;97.70
814;DHT22;389;48.710;9.392;2023-02-15T19:02:54;3.60;97.80
814;DHT22;389;48.710;9.392;2023-02-15T19:05:24;3.60;98.00
814;DHT22;389;48.710;9.392;2023-02-15T19:07:57;3.60;98.00
814;DHT22;389;48.710;9.392;2023-02-15T19:10:26;3.50;98.00
814;DHT22;389;48.710;9.392;2023-02-15T19:12:52;3.50;98.10
814;DHT22;389;48.710;9.392;2023-02-15T19:15:23;3.40;98.20
814;DHT22;389;48.710;9.392;2023-02-15T19:17:50;3.40;98.30
814;DHT22;389;48.710;9.392;2023-02-15T19:20:22;3.30;98.40
814;DHT22;389;48.710;9.392;2023-02-15T19:22:49;3.30;98.50
814;DHT22;389;48.710;9.392;2023-02-15T19:25:22;3.20;98.40
814;DHT22;389;48.710;9.392;2023-02-15T19:27:49;3.20;98.40
814;DHT22;389;48.710;9.392;2023-02-15T19:30:36;3.20;98.50
814;DHT22;389;48.710;9.392;2023-02-15T19:33:01;3.10;98.50
814;DHT22;389;48.710;9.392;2023-02-15T19:35:32;3.10;98.60
814;DHT22;389;48.710;9.392;2023-02-15T19:38:01;3.00;98.60
814;DHT22;389;48.710;9.392;2023-02-15T19:40:30;3.00;98.70
814;DHT22;389;48.710;9.392;2023-02-15T19:42:57;3.00;98.70
814;DHT22;389;48.710;9.392;2023-02-15T19:45:25;2.90;98.60
814;DHT22;389;48.710;9.392;2023-02-15T19:47:51;2.80;98.70
814;DHT22;389;48.710;9.392;2023-02-15T19:50:20;2.80;98.70
814;DHT22;389;48.710;9.392;2023-02-15T19:52:47;2.80;98.70
814;DHT22;389;48.710;9.392;2023-02-15T19:55:26;2.70;98.70
814;DHT22;389;48.710;9.392;2023-02-15T19:57:53;2.80;98.80
814;DHT22;389;48.710;9.392;2023-02-15T20:00:21;2.60;98.80
814;DHT22;389;48.710;9.392;2023-02-15T20:02:47;2.60;98.90
814;DHT22;389;48.710;9.392;2023-02-15T20:05:13;2.50;98.90
814;DHT22;389;48.710;9.392;2023-02-15T20:07:39;2.50;99.00
814;DHT22;389;48.710;9.392;2023-02-15T20:10:30;2.50;99.00
814;DHT22;389;48.710;9.392;2023-02-15T20:12:56;2.50;99.00
814;DHT22;389;48.710;9.392;2023-02-15T20:15:24;2.50;99.10
814;DHT22;389;48.710;9.392;2023-02-15T20:17:51;2.40;99.00
814;DHT22;389;48.710;9.392;2023-02-15T20:20:17;2.30;99.10
814;DHT22;389;48.710;9.392;2023-02-15T20:22:46;2.30;99.20
814;DHT22;389;48.710;9.392;2023-02-15T20:25:20;2.30;99.20
814;DHT22;389;48.710;9.392;2023-02-15T20:27:48;2.30;99.20
814;DHT22;389;48.710;9.392;2023-02-15T20:30:17;2.20;99.10
814;DHT22;389;48.710;9.392;2023-02-15T20:32:43;2.20;99.20
814;DHT22;389;48.710;9.392;2023-02-15T20:35:16;2.10;99.20
814;DHT22;389;48.710;9.392;2023-02-15T20:37:44;2.10;99.30
814;DHT22;389;48.710;9.392;2023-02-15T20:40:17;2.10;99.30
814;DHT22;389;48.710;9.392;2023-02-15T20:42:43;2.10;99.40
814;DHT22;389;48.710;9.392;2023-02-15T20:45:19;2.00;99.40
814;DHT22;389;48.710;9.392;2023-02-15T20:47:45;2.00;99.60
814;DHT22;389;48.710;9.392;2023-02-15T20:52:41;2.00;99.60
814;DHT22;389;48.710;9.392;2023-02-15T20:55:16;2.00;99.60
814;DHT22;389;48.710;9.392;2023-02-15T20:57:42;2.00;99.60
814;DHT22;389;48.710;9.392;2023-02-15T21:00:16;2.00;99.60
814;DHT22;389;48.710;9.392;2023-02-15T21:02:44;2.00;99.60
814;DHT22;389;48.710;9.392;2023-02-15T21:05:22;1.90;99.60
814;DHT22;389;48.710;9.392;2023-02-15T21:07:49;1.90;99.60
814;DHT22;389;48.710;9.392;2023-02-15T21:10:26;1.90;99.60
814;DHT22;389;48.710;9.392;2023-02-15T21:12:54;1.90;99.60
814;DHT22;389;48.710;9.392;2023-02-15T21:17:58;1.80;99.50
814;DHT22;389;48.710;9.392;2023-02-15T21:20:26;1.80;99.50
814;DHT22;389;48.710;9.392;2023-02-15T21:22:52;1.80;99.60
814;DHT22;389;48.710;9.392;2023-02-15T21:25:33;1.70;99.60
814;DHT22;389;48.710;9.392;2023-02-15T21:27:59;1.70;99.60
814;DHT22;389;48.710;9.392;2023-02-15T21:30:26;1.70;99.60
814;DHT22;389;48.710;9.392;2023-02-15T21:32:56;1.70;99.60
814;DHT22;389;48.710;9.392;2023-02-15T21:35:21;1.60;99.60
814;DHT22;389;48.710;9.392;2023-02-15T21:37:49;1.60;99.60
814;DHT22;389;48.710;9.392;2023-02-15T21:40:28;1.60;99.60
814;DHT22;389;48.710;9.392;2023-02-15T21:42:54;1.50;99.60
814;DHT22;389;48.710;9.392;2023-02-15T21:45:38;1.50;99.60
814;DHT22;389;48.710;9.392;2023-02-15T21:48:22;1.50;99.70
814;DHT22;389;48.710;9.392;2023-02-15T21:50:51;1.40;99.60
814;DHT22;389;48.710;9.392;2023-02-15T21:53:39;1.40;99.60
814;DHT22;389;48.710;9.392;2023-02-15T21:56:13;1.40;99.60
814;DHT22;389;48.710;9.392;2023-02-15T21:58:38;1.40;99.60
814;DHT22;389;48.710;9.392;2023-02-15T22:01:04;1.30;99.60
814;DHT22;389;48.710;9.392;2023-02-15T22:03:36;1.30;99.60
814;DHT22;389;48.710;9.392;2023-02-15T22:06:03;1.30;99.60
814;DHT22;389;48.710;9.392;2023-02-15T22:08:29;1.20;99.50
814;DHT22;389;48.710;9.392;2023-02-15T22:10:55;1.20;99.60
814;DHT22;389;48.710;9.392;2023-02-15T22:13:27;1.20;99.60
814;DHT22;389;48.710;9.392;2023-02-15T22:15:54;1.10;99.60
814;DHT22;389;48.710;9.392;2023-02-15T22:18:26;1.00;99.90